Terminal Aerodrome Forecast
Issued by NWS Northern Indiana

Home | Current Version | Previous Version | Graphics & Text | Print | Product List | Glossary On
Versions: 1 2 3 4 5 6 7 8 9 10 11 12 13 14 15
000
FTUS43 KIWX 290424 AAB
TAFFWA
TAF AMD
KFWA 290424Z 2904/2924 06004KT P6SM VCSH SCT050 BKN150
      TEMPO 2904/2907 5SM SHRA BKN035
     FM290800 06004KT 4SM BR SCT020 BKN200
     FM291200 07005KT P6SM SCT040 BKN150
      TEMPO 2912/2915 BKN030
     FM292100 06006KT P6SM VCSH BKN050=

USA.gov is the U.S. government's official web portal to all federal, state and local government web resources and services.